Time;durP1;ratioP1;P1;durP2;ratioP2;P2;SDS_P1;SDS_P2;PMS_P1;PMS_P2;Temp;Humidity;BMP_temperature;BMP_pressure;BME280_temperature;BME280_humidity;BME280_pressure;Samples;Min_cycle;Max_cycle;Signal;HPM_P1;HPM_P2
2023/08/18 00:01:32;;;;;;;0.20;0.20;;;28.50;60.70;;;29.09;44.67;95169.25;5034441;28;20198;-39
2023/08/18 00:03:59;;;;;;;0.30;0.30;;;28.40;60.70;;;29.08;44.64;95170.34;5034363;28;20642;-39
2023/08/18 00:06:26;;;;;;;0.30;0.30;;;28.40;60.60;;;29.04;44.41;95178.25;5035197;28;20197;-39
2023/08/18 00:08:53;;;;;;;0.30;0.30;;;28.40;60.70;;;29.03;45.14;95173.16;5035005;28;20588;-39
2023/08/18 00:11:21;;;;;;;0.30;0.30;;;28.40;60.80;;;29.02;44.63;95168.84;5035137;28;20295;-39
2023/08/18 00:13:48;;;;;;;0.43;0.43;;;28.30;60.80;;;29.01;44.91;95173.44;5035371;28;20198;-40
2023/08/18 00:16:15;;;;;;;0.30;0.30;;;28.30;60.90;;;29.02;45.21;95174.25;5034998;28;20728;-39
2023/08/18 00:18:42;;;;;;;0.40;0.40;;;28.30;60.90;;;29.02;45.15;95172.34;5035127;28;20212;-39
2023/08/18 00:21:09;;;;;;;0.30;0.30;;;28.40;61.00;;;29.02;45.18;95166.94;5034719;28;20292;-39
2023/08/18 00:23:37;;;;;;;0.30;0.30;;;28.40;61.00;;;29.01;44.82;95165.34;5034144;28;20278;-39
2023/08/18 00:26:05;;;;;;;0.22;0.22;;;28.40;61.10;;;29.00;44.83;95169.16;5034941;28;20247;-39
2023/08/18 00:28:32;;;;;;;0.20;0.20;;;28.30;61.00;;;28.99;45.19;95164.88;5035010;28;20244;-40
2023/08/18 00:31:00;;;;;;;0.30;0.30;;;28.30;61.00;;;28.97;45.18;95161.66;5035202;28;20570;-39
2023/08/18 00:33:27;;;;;;;0.30;0.30;;;28.30;61.00;;;28.98;45.51;95165.16;5033936;28;20200;-39
2023/08/18 00:35:54;;;;;;;0.30;0.30;;;28.30;61.00;;;28.97;45.52;95169.75;5050438;28;20316;-39
2023/08/18 00:38:22;;;;;;;0.30;0.30;;;28.30;61.10;;;28.96;44.90;95162.75;5033743;28;20193;-41
2023/08/18 00:40:49;;;;;;;0.30;0.30;;;28.30;61.10;;;28.93;45.33;95157.97;5034805;28;20224;-40
2023/08/18 00:43:17;;;;;;;0.20;0.20;;;28.30;61.00;;;28.90;45.40;95162.06;5034778;28;20195;-39
2023/08/18 00:45:45;;;;;;;0.30;0.30;;;28.30;61.00;;;28.84;44.89;95159.78;5033921;28;20206;-37
2023/08/18 00:48:12;;;;;;;0.30;0.30;;;28.30;61.00;;;28.81;44.98;95150.41;5037510;28;20243;-37
2023/08/18 00:50:40;;;;;;;0.30;0.30;;;28.20;61.10;;;28.79;45.06;95147.19;5021501;28;20192;-37
2023/08/18 00:53:08;;;;;;;0.30;0.30;;;28.20;61.10;;;28.79;45.03;95149.09;5037820;28;20263;-38
2023/08/18 00:55:36;;;;;;;0.30;0.30;;;28.20;61.20;;;28.77;45.45;95148.59;5038732;28;20224;-42
2023/08/18 00:58:04;;;;;;;0.38;0.38;;;28.10;61.20;;;28.78;45.15;95142.09;5039313;28;20279;-39
2023/08/18 01:00:32;;;;;;;0.30;0.30;;;28.10;61.20;;;28.76;45.79;95126.22;5037695;28;20287;-43
2023/08/18 01:03:00;;;;;;;0.30;0.30;;;28.20;61.40;;;28.78;45.69;95128.59;5038800;28;20192;-40
2023/08/18 01:05:27;;;;;;;0.30;0.30;;;28.10;61.30;;;28.78;45.88;95125.91;5037575;28;20574;-41
2023/08/18 01:07:54;;;;;;;0.30;0.30;;;28.10;61.30;;;28.78;45.59;95128.59;5038491;28;20203;-44
2023/08/18 01:10:24;;;;;;;0.20;0.20;;;28.10;61.40;;;28.79;46.00;95111.31;5039181;28;20200;-39
2023/08/18 01:13:13;;;;;;;0.30;0.30;;;28.10;62.30;;;28.75;45.26;95111.91;5037821;28;20205;-39
2023/08/18 01:15:43;;;;;;;0.30;0.30;;;28.10;61.50;;;28.75;45.50;95114.59;5037749;28;20219;-40
2023/08/18 01:18:12;;;;;;;0.30;0.30;;;28.10;61.40;;;28.75;45.33;95109.19;5038376;28;20694;-39
2023/08/18 01:20:41;;;;;;;0.30;0.30;;;28.10;61.40;;;28.75;46.00;95111.91;5038335;28;20189;-39
2023/08/18 01:23:08;;;;;;;0.30;0.30;;;28.10;61.40;;;28.75;46.12;95098.41;5021059;28;20669;-39
2023/08/18 01:25:36;;;;;;;0.30;0.30;;;28.10;61.80;;;28.77;45.60;95102.72;5038135;28;20236;-39
2023/08/18 01:28:04;;;;;;;0.20;0.20;;;28.10;61.50;;;28.76;46.33;95099.22;5038587;28;20197;-38
2023/08/18 01:30:45;;;;;;;0.30;0.30;;;28.10;61.50;;;28.75;46.10;95100.31;5037968;28;20253;-37
2023/08/18 01:33:52;;;;;;;0.30;0.30;;;28.10;61.40;;;28.69;46.12;95096.13;5038096;28;20185;-37
2023/08/18 01:36:22;;;;;;;0.20;0.20;;;28.10;61.40;;;28.63;45.88;95106.19;5037400;28;20235;-38
2023/08/18 01:38:51;;;;;;;0.30;0.30;;;28.10;61.40;;;28.59;46.08;95107.91;5020426;28;20214;-37
2023/08/18 01:41:24;;;;;;;0.30;0.30;;;28.00;61.30;;;28.56;45.41;95111.22;5037064;28;20236;-37
2023/08/18 01:43:52;;;;;;;0.30;0.30;;;28.00;61.30;;;28.53;45.47;95103.72;5036919;28;20534;-37
2023/08/18 01:46:19;;;;;;;0.20;0.20;;;28.00;61.30;;;28.50;45.65;95102.41;5037793;28;20193;-42
2023/08/18 01:48:48;;;;;;;0.30;0.30;;;28.00;61.40;;;28.47;45.54;95102.25;5036734;28;20606;-40
2023/08/18 01:51:15;;;;;;;0.20;0.20;;;28.00;61.40;;;28.44;45.60;95106.31;5038582;28;20284;-40
2023/08/18 01:53:44;;;;;;;0.20;0.20;;;28.00;61.50;;;28.45;45.79;95113.31;5037951;28;20616;-38
2023/08/18 01:56:11;;;;;;;0.30;0.30;;;27.90;61.50;;;28.44;45.61;95107.13;5037968;28;20242;-36
2023/08/18 01:58:39;;;;;;;0.30;0.30;;;27.90;61.50;;;28.42;45.78;95108.53;5036661;28;20206;-37
2023/08/18 02:01:06;;;;;;;0.30;0.30;;;27.90;61.60;;;28.42;46.45;95106.63;5037818;28;20221;-43
2023/08/18 02:03:34;;;;;;;0.30;0.30;;;27.90;61.60;;;28.39;46.21;95107.25;5038202;28;20554;-38
2023/08/18 02:06:05;;;;;;;0.30;0.30;;;27.80;61.60;;;28.38;45.61;95104.81;5037463;28;20552;-45
2023/08/18 02:08:35;;;;;;;0.30;0.30;;;27.80;61.50;;;28.29;45.81;95104.72;5037879;28;20521;-39
2023/08/18 02:11:03;;;;;;;0.30;0.30;;;27.80;61.50;;;28.23;46.62;95098.63;5036793;28;20291;-37
2023/08/18 02:13:31;;;;;;;0.30;0.30;;;27.80;61.50;;;28.22;45.95;95102.44;5038073;28;20203;-36
2023/08/18 02:15:59;;;;;;;0.30;0.30;;;27.80;61.70;;;28.23;46.35;95101.31;5020236;28;20220;-40
2023/08/18 02:18:27;;;;;;;0.30;0.30;;;27.70;61.70;;;28.23;46.03;95093.22;5020002;28;20291;-42
2023/08/18 02:20:59;;;;;;;0.38;0.38;;;27.70;61.80;;;28.25;46.70;95091.03;5037067;28;20255;-37
2023/08/18 02:23:28;;;;;;;0.30;0.30;;;27.70;61.80;;;28.27;46.10;95086.16;5036845;28;20525;-37
2023/08/18 02:26:04;;;;;;;0.30;0.30;;;27.70;61.90;;;28.30;46.42;95083.97;5036177;28;20222;-37
2023/08/18 02:28:33;;;;;;;0.30;0.30;;;27.70;62.00;;;28.31;46.07;95085.53;5036078;28;20196;-37
2023/08/18 02:31:05;;;;;;;0.28;0.28;;;27.70;61.80;;;28.27;46.56;95083.47;5019559;28;20214;-37
2023/08/18 02:33:34;;;;;;;0.20;0.20;;;27.70;61.90;;;28.27;46.30;95085.34;5037515;28;20188;-37
2023/08/18 02:36:01;;;;;;;0.30;0.30;;;27.70;61.90;;;28.27;46.70;95085.34;5036990;28;20229;-37
2023/08/18 02:38:30;;;;;;;0.30;0.30;;;27.70;61.90;;;28.27;46.70;95088.03;5037619;28;20666;-38
2023/08/18 02:40:57;;;;;;;0.30;0.30;;;27.70;62.70;;;28.24;46.59;95085.97;5036632;28;20232;-38
2023/08/18 02:43:25;;;;;;;0.20;0.20;;;27.70;61.80;;;28.23;46.48;95089.75;5036965;28;20197;-37
2023/08/18 02:45:59;;;;;;;0.20;0.20;;;27.70;61.80;;;28.20;46.66;95088.47;5035706;28;20205;-37
2023/08/18 02:48:29;;;;;;;0.30;0.30;;;27.70;61.90;;;28.20;46.75;95084.97;5035546;28;20292;-37
2023/08/18 02:51:07;;;;;;;0.30;0.30;;;27.70;61.90;;;28.19;46.75;95086.06;5036582;28;20206;-37
2023/08/18 02:53:39;;;;;;;0.40;0.40;;;27.70;61.90;;;28.17;46.35;95093.66;5037115;28;20189;-38
2023/08/18 02:56:07;;;;;;;0.32;0.32;;;27.70;61.80;;;28.15;46.14;95098.53;5036706;28;20299;-38
2023/08/18 02:58:36;;;;;;;0.40;0.40;;;27.70;61.80;;;28.11;46.16;95099.16;5035473;28;20528;-38
2023/08/18 03:01:06;;;;;;;0.30;0.30;;;27.60;61.80;;;28.09;46.62;95097.84;5051909;28;20209;-37
2023/08/18 03:03:34;;;;;;;0.32;0.32;;;27.60;61.90;;;28.07;46.59;95090.03;5036927;28;20184;-37
2023/08/18 03:06:04;;;;;;;0.30;0.30;;;27.60;61.80;;;28.04;46.67;95093.31;5036893;28;20214;-37
2023/08/18 03:08:32;;;;;;;0.40;0.40;;;27.50;61.90;;;28.04;46.29;95108.69;5036361;28;20208;-37
2023/08/18 03:11:01;;;;;;;0.40;0.40;;;27.50;62.00;;;28.02;46.72;95100.91;5035604;28;20268;-37
2023/08/18 03:13:28;;;;;;;0.40;0.40;;;27.50;62.00;;;28.01;46.91;95096.59;5035571;28;20193;-37
2023/08/18 03:15:55;;;;;;;0.30;0.30;;;27.50;62.00;;;28.00;47.02;95107.69;5036305;28;20216;-37
2023/08/18 03:18:23;;;;;;;0.30;0.30;;;27.50;62.10;;;28.00;46.83;95099.59;5036314;28;20186;-37
2023/08/18 03:20:57;;;;;;;0.30;0.30;;;27.50;62.30;;;28.00;46.72;95100.38;5034915;28;20303;-37
2023/08/18 03:23:24;;;;;;;0.30;0.30;;;27.50;62.30;;;28.02;46.67;95097.41;5036030;28;20182;-37
2023/08/18 03:25:51;;;;;;;0.30;0.30;;;27.50;62.30;;;28.02;47.08;95102.81;5034984;28;20273;-37
2023/08/18 03:28:18;;;;;;;0.30;0.30;;;27.50;62.40;;;28.03;46.71;95105.19;5035885;28;20329;-37
2023/08/18 03:30:45;;;;;;;0.30;0.30;;;27.50;62.40;;;28.05;46.59;95113.00;5034716;28;20748;-37
2023/08/18 03:33:12;;;;;;;0.40;0.40;;;27.50;62.30;;;28.04;46.81;95106.81;5051461;28;20226;-37
2023/08/18 03:35:39;;;;;;;0.30;0.30;;;27.50;62.40;;;28.05;47.03;95113.00;5035908;28;20540;-37
2023/08/18 03:38:06;;;;;;;0.30;0.30;;;27.50;62.30;;;28.04;47.04;95114.88;5034796;28;20260;-37
2023/08/18 03:40:33;;;;;;;0.30;0.30;;;27.50;62.10;;;28.01;46.91;95115.47;5035479;28;20613;-37
2023/08/18 03:43:01;;;;;;;0.30;0.30;;;27.50;62.10;;;27.99;46.45;95112.28;5034701;28;20201;-37
2023/08/18 03:45:28;;;;;;;0.30;0.30;;;27.50;62.00;;;27.96;46.53;95099.41;5034837;28;20246;-37
2023/08/18 03:47:56;;;;;;;0.30;0.30;;;27.50;62.10;;;27.95;46.93;95108.56;5034391;28;20751;-37
2023/08/18 03:50:23;;;;;;;0.25;0.25;;;27.40;62.00;;;27.92;46.43;95109.19;5035773;28;20234;-37
2023/08/18 03:52:50;;;;;;;0.20;0.20;;;27.50;62.20;;;27.89;46.62;95109.78;5034471;28;20267;-37
2023/08/18 03:55:18;;;;;;;0.30;0.30;;;27.50;62.20;;;27.88;46.66;95110.84;5034422;28;20223;-37
2023/08/18 03:57:45;;;;;;;0.30;0.30;;;27.40;62.10;;;27.87;46.62;95120.03;5051020;28;20212;-37
2023/08/18 04:00:13;;;;;;;0.30;0.30;;;27.40;62.20;;;27.87;46.91;95123.56;5035174;28;20209;-37
2023/08/18 04:02:41;;;;;;;0.30;0.30;;;27.40;62.30;;;27.87;47.36;95123.56;5035582;28;20207;-37
2023/08/18 04:05:12;;;;;;;0.20;0.20;;;27.40;62.40;;;27.88;47.29;95119.75;5034682;28;20197;-37
2023/08/18 04:07:40;;;;;;;0.30;0.30;;;27.40;62.50;;;27.89;47.36;95118.69;5050850;28;20195;-37
2023/08/18 04:10:08;;;;;;;0.30;0.30;;;27.40;62.50;;;27.90;46.83;95125.63;5017988;28;20589;-37
2023/08/18 04:12:35;;;;;;;0.20;0.20;;;27.40;62.50;;;27.90;47.08;95132.94;5035438;28;20203;-40
2023/08/18 04:15:03;;;;;;;0.30;0.30;;;27.40;62.50;;;27.91;47.22;95129.16;5050668;28;20208;-41
2023/08/18 04:17:30;;;;;;;0.22;0.22;;;27.40;62.40;;;27.91;46.81;95135.31;5034154;28;20259;-39
2023/08/18 04:19:58;;;;;;;0.35;0.35;;;27.40;62.30;;;27.91;47.50;95126.47;5034197;28;20206;-39
2023/08/18 04:22:25;;;;;;;0.20;0.20;;;27.40;62.30;;;27.90;46.74;95128.34;5049808;28;20284;-39
2023/08/18 04:24:53;;;;;;;0.30;0.30;;;27.40;62.30;;;27.88;47.16;95133.25;5034053;28;20207;-37
2023/08/18 04:27:20;;;;;;;0.38;0.38;;;27.40;62.20;;;27.86;46.83;95135.44;5034014;28;20201;-39
2023/08/18 04:29:47;;;;;;;0.30;0.30;;;27.40;62.20;;;27.84;47.00;95134.13;5034935;28;20256;-39
2023/08/18 04:32:15;;;;;;;0.30;0.30;;;27.40;62.20;;;27.81;46.82;95130.13;5034540;28;20224;-39
2023/08/18 04:34:44;;;;;;;0.30;0.30;;;27.40;62.30;;;27.80;47.32;95136.63;5034046;28;20203;-39
2023/08/18 04:37:14;;;;;;;0.30;0.30;;;27.40;62.50;;;27.82;47.51;95139.00;5033852;28;20216;-40
2023/08/18 04:39:42;;;;;;;0.30;0.30;;;27.40;62.50;;;27.82;47.30;95137.13;5035073;28;20281;-36
2023/08/18 04:42:09;;;;;;;0.30;0.30;;;27.40;62.40;;;27.81;47.14;95135.53;5034928;28;20661;-36
2023/08/18 04:44:36;;;;;;;0.30;0.30;;;27.30;62.40;;;27.82;47.05;95137.13;5034522;28;20578;-37
2023/08/18 04:47:05;;;;;;;0.30;0.30;;;27.30;62.60;;;27.83;47.49;95132.53;5033685;28;20579;-37
2023/08/18 04:49:32;;;;;;;0.30;0.30;;;27.40;62.60;;;27.84;47.61;95139.53;5034141;28;20231;-38
2023/08/18 04:52:00;;;;;;;0.30;0.30;;;27.40;62.70;;;27.83;47.03;95143.31;5033666;28;20206;-38
2023/08/18 04:54:27;;;;;;;0.30;0.30;;;27.40;62.60;;;27.82;47.13;95145.22;5034089;28;20273;-41
2023/08/18 04:56:59;;;;;;;0.30;0.30;;;27.40;62.60;;;27.80;47.65;95142.78;5035224;28;20238;-39
2023/08/18 04:59:27;;;;;;;0.30;0.30;;;27.40;62.60;;;27.81;46.99;95146.31;5034945;28;20222;-39
2023/08/18 05:01:56;;;;;;;0.30;0.30;;;27.30;62.60;;;27.79;47.61;95148.50;5033550;28;20541;-39
2023/08/18 05:04:23;;;;;;;0.30;0.30;;;27.40;62.60;;;27.77;47.71;95145.28;5033682;28;20217;-39
2023/08/18 05:06:51;;;;;;;0.30;0.30;;;27.40;62.60;;;27.76;47.69;95157.97;5050239;28;20211;-39
2023/08/18 05:09:18;;;;;;;0.30;0.30;;;27.30;62.70;;;27.73;47.90;95153.16;5034575;28;20651;-39
2023/08/18 05:11:45;;;;;;;0.30;0.30;;;27.30;62.70;;;27.78;47.81;95157.66;5034433;28;20709;-39
2023/08/18 05:14:13;;;;;;;0.30;0.30;;;27.30;63.60;;;27.79;47.50;95157.38;5034728;28;20578;-39
2023/08/18 05:16:40;;;;;;;0.20;0.20;;;27.30;62.80;;;27.82;47.60;95160.56;5034672;28;20739;-39
2023/08/18 05:19:07;;;;;;;0.30;0.30;;;27.30;62.80;;;27.83;47.58;95165.69;5034482;28;20209;-39
2023/08/18 05:21:35;;;;;;;0.30;0.30;;;27.30;62.80;;;27.83;48.01;95165.69;5034434;28;20636;-39
2023/08/18 05:24:02;;;;;;;0.30;0.30;;;27.40;62.90;;;27.85;47.77;95157.28;5034715;28;20229;-39
2023/08/18 05:26:30;;;;;;;0.30;0.30;;;27.30;62.90;;;27.89;47.95;95166.38;5034787;28;20624;-39
2023/08/18 05:28:57;;;;;;;0.30;0.30;;;27.40;63.00;;;27.89;47.55;95166.38;5033559;28;20209;-39
2023/08/18 05:31:24;;;;;;;0.30;0.30;;;27.40;62.90;;;27.92;48.04;95165.81;5033316;28;20200;-39
2023/08/18 05:33:51;;;;;;;0.30;0.30;;;27.40;63.00;;;27.93;47.73;95159.31;5037314;28;20193;-39
2023/08/18 05:36:18;;;;;;;0.30;0.30;;;27.40;63.90;;;27.93;47.90;95157.41;5038180;28;20215;-39
2023/08/18 05:38:46;;;;;;;0.30;0.30;;;27.50;63.00;;;27.99;47.72;95160.00;5037114;28;20204;-39
2023/08/18 05:41:14;;;;;;;0.30;0.30;;;27.50;62.90;;;27.98;47.92;95161.91;5036545;28;20223;-39
2023/08/18 05:43:41;;;;;;;0.30;0.30;;;27.50;62.90;;;28.01;47.95;95161.31;5038416;28;20192;-39
2023/08/18 05:46:09;;;;;;;0.30;0.30;;;27.50;63.00;;;28.01;47.57;95161.31;5037889;28;20692;-39
2023/08/18 05:48:36;;;;;;;0.28;0.28;;;27.50;63.00;;;28.04;47.49;95168.81;5037609;28;20643;-39
2023/08/18 05:51:04;;;;;;;0.30;0.30;;;27.60;63.00;;;28.05;48.06;95161.53;5037865;28;20260;-39
2023/08/18 05:53:31;;;;;;;0.30;0.30;;;27.50;62.90;;;28.06;47.46;95163.16;5037682;28;20648;-39
2023/08/18 05:55:58;;;;;;;0.30;0.30;;;27.60;62.90;;;28.05;47.80;95156.97;5037668;28;20247;-39
2023/08/18 05:58:26;;;;;;;0.20;0.20;;;27.60;62.80;;;28.04;47.93;95155.34;5037864;28;20216;-37
2023/08/18 06:00:53;;;;;;;0.30;0.30;;;27.60;62.80;;;28.05;47.63;95158.84;5036763;28;20302;-36
2023/08/18 06:03:20;;;;;;;0.28;0.28;;;27.60;62.80;;;28.05;47.84;95156.16;5036954;28;20248;-39
2023/08/18 06:05:48;;;;;;;0.30;0.30;;;27.60;62.80;;;28.04;47.74;95152.63;5037724;28;20206;-39
2023/08/18 06:08:16;;;;;;;0.30;0.30;;;27.60;62.80;;;28.05;47.66;95154.28;5037484;28;20199;-41
2023/08/18 06:10:45;;;;;;;0.30;0.30;;;27.60;62.90;;;28.07;47.73;95157.44;5037282;28;20232;-36
2023/08/18 06:13:12;;;;;;;0.30;0.30;;;27.60;62.90;;;28.07;47.82;95160.16;5037715;28;20258;-41
2023/08/18 06:15:39;;;;;;;0.30;0.30;;;27.60;62.90;;;28.07;47.48;95154.75;5036519;28;20223;-36
2023/08/18 06:18:07;;;;;;;0.30;0.30;;;27.60;62.90;;;28.08;47.97;95156.34;5037292;28;20250;-38
2023/08/18 06:20:34;;;;;;;0.30;0.30;;;27.60;63.00;;;28.08;48.08;95159.06;5037438;28;20219;-42
2023/08/18 06:23:01;;;;;;;0.30;0.30;;;27.60;62.90;;;28.09;47.77;95166.06;5036300;28;20294;-36
2023/08/18 06:25:28;;;;;;;0.30;0.30;;;27.60;63.00;;;28.08;47.39;95169.06;5037211;28;20588;-39
2023/08/18 06:27:56;;;;;;;0.20;0.20;;;27.60;63.00;;;28.10;47.76;95169.56;5037714;28;20202;-36
2023/08/18 06:30:23;;;;;;;0.40;0.40;;;27.60;63.00;;;28.09;47.55;95168.75;5036337;28;20198;-39
2023/08/18 06:32:50;;;;;;;0.20;0.20;;;27.60;63.00;;;28.10;47.65;95158.78;5037289;28;20225;-38
2023/08/18 06:35:18;;;;;;;0.30;0.30;;;27.60;63.00;;;28.11;48.10;95163.88;5037424;28;20201;-39
2023/08/18 06:37:45;;;;;;;0.30;0.30;;;27.60;63.00;;;28.13;48.05;95171.66;5037146;28;20660;-41
2023/08/18 06:40:13;;;;;;;0.20;0.20;;;27.60;63.00;;;28.13;48.15;95162.78;5037175;28;20201;-43
2023/08/18 06:42:40;;;;;;;0.30;0.30;;;27.60;63.00;;;28.14;47.91;95167.84;5036997;28;20587;-37
2023/08/18 06:45:08;;;;;;;0.30;0.30;;;27.60;63.00;;;28.15;48.20;95165.94;5036002;28;20218;-36
2023/08/18 06:47:35;;;;;;;0.32;0.32;;;27.60;63.00;;;28.15;48.12;95158.69;5036541;28;20697;-37
2023/08/18 06:50:05;;;;;;;0.30;0.30;;;27.70;63.10;;;28.18;48.21;95168.84;5036779;28;20215;-36
2023/08/18 06:52:33;;;;;;;0.20;0.20;;;27.70;63.20;;;28.19;48.01;95162.38;5036575;28;20192;-36
2023/08/18 06:55:03;;;;;;;0.30;0.30;;;27.70;64.10;;;28.21;47.77;95164.75;5036767;28;20207;-41
2023/08/18 06:57:31;;;;;;;0.25;0.25;;;27.70;63.20;;;28.22;48.04;95160.97;5052523;28;20198;-38
2023/08/18 06:59:59;;;;;;;0.30;0.30;;;27.70;63.20;;;28.23;48.35;95166.06;5036997;28;20193;-39
2023/08/18 07:02:27;;;;;;;0.30;0.30;;;27.70;63.20;;;28.25;48.34;95166.56;5036463;28;20706;-36
2023/08/18 07:04:55;;;;;;;0.30;0.30;;;27.80;63.20;;;28.26;47.70;95162.78;5036581;28;20257;-39
2023/08/18 07:07:22;;;;;;;0.25;0.25;;;27.80;63.20;;;28.29;48.03;95164.06;5036808;28;20309;-36
2023/08/18 07:09:49;;;;;;;0.22;0.22;;;27.80;63.10;;;28.28;48.24;95165.97;5035514;28;20277;-37
2023/08/18 07:12:18;;;;;;;0.30;0.30;;;27.80;63.20;;;28.33;47.89;95167.78;5037168;28;20219;-39
2023/08/18 07:14:45;;;;;;;0.30;0.30;;;27.80;63.30;;;28.32;48.36;95160.78;5035018;28;20223;-37
2023/08/18 07:17:12;;;;;;;0.20;0.20;;;27.80;63.40;;;28.33;48.56;95157.00;5035997;28;20314;-38
2023/08/18 07:19:39;;;;;;;0.30;0.30;;;27.80;63.40;;;28.35;48.14;95162.88;5036907;28;20199;-40
2023/08/18 07:22:07;;;;;;;0.30;0.30;;;27.90;63.50;;;28.35;48.37;95162.09;5036463;28;20202;-39
2023/08/18 07:24:34;;;;;;;0.30;0.30;;;27.90;63.50;;;28.36;48.20;95163.69;5036410;28;20254;-39
2023/08/18 07:27:01;;;;;;;0.30;0.30;;;27.90;63.50;;;28.36;48.76;95161.78;5036413;28;20299;-39
2023/08/18 07:29:29;;;;;;;0.22;0.22;;;27.90;63.50;;;28.38;48.89;95156.06;5035939;28;20271;-42
2023/08/18 07:31:56;;;;;;;0.30;0.30;;;27.90;63.50;;;28.38;48.29;95167.69;5034966;28;20386;-41
2023/08/18 07:34:23;;;;;;;0.30;0.30;;;27.90;63.60;;;28.39;48.29;95163.91;5036104;28;20189;-39
2023/08/18 07:36:50;;;;;;;0.30;0.30;;;27.90;63.60;;;28.39;48.38;95171.16;5035869;28;20307;-37
2023/08/18 07:39:18;;;;;;;0.20;0.20;;;27.90;63.50;;;28.41;48.68;95171.69;5035809;28;20224;-37
2023/08/18 07:41:45;;;;;;;0.35;0.35;;;28.00;63.60;;;28.41;49.00;95169.78;5036679;28;20208;-40
2023/08/18 07:44:12;;;;;;;0.20;0.20;;;27.90;63.60;;;28.42;48.33;95176.78;5051901;28;20225;-42
2023/08/18 07:46:40;;;;;;;0.30;0.30;;;28.00;63.70;;;28.42;48.95;95178.69;5035106;28;20198;-36
2023/08/18 07:49:07;;;;;;;0.30;0.30;;;27.90;63.60;;;28.43;48.74;95172.97;5036359;28;20190;-37
2023/08/18 07:51:34;;;;;;;0.30;0.30;;;28.00;63.70;;;28.45;49.04;95180.75;5035489;28;20586;-43
2023/08/18 07:54:01;;;;;;;0.30;0.30;;;27.90;63.70;;;28.47;48.58;95185.88;5035638;28;20233;-39
2023/08/18 07:56:28;;;;;;;0.30;0.30;;;28.00;63.80;;;28.47;49.22;95180.50;5035286;28;20222;-42
2023/08/18 07:58:55;;;;;;;0.30;0.30;;;28.00;63.80;;;28.48;48.55;95176.66;5035595;28;20266;-36
2023/08/18 08:01:23;;;;;;;0.30;0.30;;;28.00;63.80;;;28.49;48.72;95176.38;5034767;28;20255;-37
2023/08/18 08:03:50;;;;;;;0.30;0.30;;;28.00;63.90;;;28.51;48.83;95176.06;5034908;28;20244;-36
2023/08/18 08:06:17;;;;;;;0.30;0.30;;;28.00;63.90;;;28.52;49.11;95177.69;5035051;28;20197;-39
2023/08/18 08:08:44;;;;;;;0.30;0.30;;;28.00;63.90;;;28.54;49.12;95172.75;5036153;28;20199;-41
2023/08/18 08:11:12;;;;;;;0.30;0.30;;;28.00;63.90;;;28.54;48.71;95170.06;5035566;28;20703;-40
2023/08/18 08:13:39;;;;;;;0.30;0.30;;;28.00;63.90;;;28.55;49.18;95172.47;5035203;28;20185;-37
2023/08/18 08:16:07;;;;;;;0.20;0.20;;;28.10;64.00;;;28.57;48.56;95175.66;5035168;28;20228;-37
2023/08/18 08:18:34;;;;;;;0.30;0.30;;;28.10;64.00;;;28.58;48.76;95169.16;5035240;28;20269;-40
2023/08/18 08:21:01;;;;;;;0.30;0.30;;;28.10;64.00;;;28.59;48.84;95165.38;5035132;28;20215;-40
2023/08/18 08:23:29;;;;;;;0.30;0.30;;;28.10;63.90;;;28.62;49.00;95171.28;5034666;28;20193;-37
2023/08/18 08:25:56;;;;;;;0.20;0.20;;;28.10;64.00;;;28.63;48.66;95173.66;5035756;28;20254;-40
2023/08/18 08:28:24;;;;;;;0.30;0.30;;;28.10;63.90;;;28.64;49.16;95169.88;5034552;28;20532;-37
2023/08/18 08:30:54;;;;;;;0.30;0.30;;;28.10;63.90;;;28.65;49.21;95174.19;5035784;28;20209;-40
2023/08/18 08:33:21;;;;;;;0.30;0.30;;;28.10;63.90;;;28.67;49.03;95171.16;5035029;28;20272;-36
2023/08/18 08:35:51;;;;;;;0.30;0.30;;;28.10;63.90;;;28.69;49.38;95177.09;5035537;28;20280;-36
2023/08/18 08:38:18;;;;;;;0.30;0.30;;;28.10;63.90;;;28.68;48.77;95181.69;5035131;28;20228;-36
2023/08/18 08:40:48;;;;;;;0.30;0.30;;;28.20;64.00;;;28.71;48.83;95180.28;5035258;28;20531;-39
2023/08/18 08:43:18;;;;;;;0.30;0.30;;;28.20;63.90;;;28.71;48.51;95178.41;5035888;28;20235;-39
2023/08/18 08:45:46;;;;;;;0.22;0.22;;;28.20;64.00;;;28.73;49.16;95184.31;5034993;28;20698;-40
2023/08/18 08:48:14;;;;;;;0.30;0.30;;;28.20;63.90;;;28.75;48.58;95178.59;5034054;28;20328;-37
2023/08/18 08:50:54;;;;;;;0.20;0.20;;;28.20;63.90;;;28.77;48.61;95183.69;5034980;28;20184;-37
2023/08/18 08:53:35;;;;;;;0.40;0.40;;;28.20;63.90;;;28.78;49.21;95175.28;5035155;28;20289;-37
2023/08/18 08:56:03;;;;;;;0.30;0.30;;;28.30;64.00;;;28.81;48.62;95177.38;5034254;28;20217;-39
2023/08/18 08:58:36;;;;;;;0.30;0.30;;;28.30;63.80;;;28.82;48.62;95170.06;5035068;28;20739;-37
2023/08/18 09:01:07;;;;;;;0.30;0.30;;;28.30;63.90;;;28.84;48.90;95174.06;5034730;28;20203;-39
2023/08/18 09:03:34;;;;;;;0.30;0.30;;;28.30;63.90;;;28.85;49.15;95178.38;5035306;28;20239;-40
2023/08/18 09:06:02;;;;;;;0.30;0.30;;;28.30;63.80;;;28.86;48.98;95169.19;5034604;28;20219;-39
2023/08/18 09:08:30;;;;;;;0.30;0.30;;;28.30;63.80;;;28.89;48.92;95165.88;5037100;28;20196;-39
2023/08/18 09:10:57;;;;;;;0.30;0.30;;;28.30;63.70;;;28.91;48.96;95170.97;5038762;28;20200;-39
2023/08/18 09:13:24;;;;;;;0.32;0.32;;;28.40;63.80;;;28.95;48.86;95168.47;5038592;28;20206;-39
2023/08/18 09:15:51;;;;;;;0.30;0.30;;;28.40;63.80;;;28.96;48.79;95159.28;5038420;28;20286;-40
2023/08/18 09:18:19;;;;;;;0.30;0.30;;;28.40;63.70;;;28.97;48.47;95166.28;5037412;28;20558;-39
2023/08/18 09:20:46;;;;;;;0.30;0.30;;;28.40;63.60;;;28.99;48.27;95158.66;5038736;28;20196;-40
2023/08/18 09:23:13;;;;;;;0.30;0.30;;;28.40;63.60;;;29.02;48.15;95155.34;5037425;28;20692;-39
2023/08/18 09:25:41;;;;;;;0.20;0.20;;;28.40;63.60;;;29.03;48.15;95159.66;5037593;28;20190;-40
2023/08/18 09:28:08;;;;;;;0.20;0.20;;;28.50;63.60;;;29.05;48.75;95160.94;5038212;28;20225;-37
2023/08/18 09:30:42;;;;;;;0.20;0.20;;;28.50;63.50;;;29.06;48.15;95159.03;5038178;28;20642;-37
2023/08/18 09:33:09;;;;;;;0.30;0.30;;;28.50;63.60;;;29.07;47.97;95158.72;5038230;28;20198;-37
2023/08/18 09:35:36;;;;;;;0.38;0.38;;;28.50;63.50;;;29.09;48.46;95153.03;5037313;28;20637;-39
2023/08/18 09:38:04;;;;;;;0.30;0.30;;;28.50;63.50;;;29.11;48.46;95155.44;5038318;28;20239;-36
2023/08/18 09:40:31;;;;;;;0.20;0.20;;;28.50;63.50;;;29.12;48.27;95159.72;5038311;28;20216;-38
2023/08/18 09:42:58;;;;;;;0.22;0.22;;;28.50;63.40;;;29.14;48.63;95155.63;5037278;28;20207;-40
2023/08/18 09:45:32;;;;;;;0.30;0.30;;;28.50;63.40;;;29.16;48.52;95158.00;5038280;28;20198;-37
2023/08/18 09:48:02;;;;;;;0.30;0.30;;;28.50;63.30;;;29.16;48.16;95153.41;5037707;28;20678;-37
2023/08/18 09:50:33;;;;;;;0.30;0.30;;;28.60;63.40;;;29.19;47.85;95146.59;5037844;28;20192;-45
2023/08/18 09:53:02;;;;;;;0.20;0.20;;;28.60;63.30;;;29.21;47.73;95142.50;5038986;28;20487;-40
2023/08/18 09:55:43;;;;;;;0.30;0.30;;;28.60;63.30;;;29.22;48.15;95143.28;5038124;28;20221;-38
2023/08/18 09:58:41;;;;;;;0.40;0.40;;;28.70;63.20;;;29.23;48.09;95150.28;5038054;28;20206;-41
2023/08/18 10:01:09;;;;;;;0.20;0.20;;;28.70;63.30;;;29.26;48.48;95149.69;5036456;28;20235;-40
2023/08/18 10:03:38;;;;;;;0.30;0.30;;;28.70;63.30;;;29.29;48.10;95145.56;5036625;28;20221;-36
2023/08/18 10:06:07;;;;;;;0.30;0.30;;;28.70;63.20;;;29.30;47.62;95148.00;5037824;28;20264;-37
2023/08/18 10:08:35;;;;;;;0.20;0.20;;;28.70;63.20;;;29.33;47.86;95136.59;5037081;28;20213;-37
2023/08/18 10:11:02;;;;;;;0.30;0.30;;;28.70;63.20;;;29.35;48.38;95136.28;5037596;28;20228;-39
2023/08/18 10:13:33;;;;;;;0.20;0.20;;;28.70;63.20;;;29.36;48.04;95135.19;5037280;28;20202;-36
2023/08/18 10:16:04;;;;;;;0.30;0.30;;;28.80;63.20;;;29.38;47.52;95136.47;5036696;28;20180;-37
2023/08/18 10:18:32;;;;;;;0.20;0.20;;;28.80;63.10;;;29.40;47.99;95133.44;5036399;28;20215;-36
2023/08/18 10:21:00;;;;;;;0.20;0.20;;;28.80;63.10;;;29.41;47.87;95131.53;5036424;28;20198;-39
2023/08/18 10:23:31;;;;;;;0.30;0.30;;;28.80;63.00;;;29.43;47.58;95127.44;5037614;28;20199;-42
2023/08/18 10:25:58;;;;;;;0.30;0.30;;;28.80;63.00;;;29.45;47.36;95125.22;5037615;28;20245;-40